sensor_id;sensor_type;location;lat;lon;timestamp;P1;durP1;ratioP1;P2;durP2;ratioP2
20140;SDS011;10231;47.702;9.826;2022-09-09T00:06:45;1.87;;;1.13;;
20140;SDS011;10231;47.702;9.826;2022-09-09T00:09:19;1.70;;;1.00;;
20140;SDS011;10231;47.702;9.826;2022-09-09T00:11:51;2.20;;;1.23;;
20140;SDS011;10231;47.702;9.826;2022-09-09T00:15:04;1.80;;;1.27;;
20140;SDS011;10231;47.702;9.826;2022-09-09T00:20:13;2.87;;;1.20;;
20140;SDS011;10231;47.702;9.826;2022-09-09T00:22:47;5.37;;;0.97;;
20140;SDS011;10231;47.702;9.826;2022-09-09T00:25:34;3.23;;;1.43;;
20140;SDS011;10231;47.702;9.826;2022-09-09T00:28:13;2.60;;;1.10;;
20140;SDS011;10231;47.702;9.826;2022-09-09T00:30:43;3.33;;;1.20;;
20140;SDS011;10231;47.702;9.826;2022-09-09T00:33:13;2.20;;;1.40;;
20140;SDS011;10231;47.702;9.826;2022-09-09T00:35:47;6.87;;;2.13;;
20140;SDS011;10231;47.702;9.826;2022-09-09T00:41:03;1.93;;;1.37;;
20140;SDS011;10231;47.702;9.826;2022-09-09T00:43:37;8.03;;;1.70;;
20140;SDS011;10231;47.702;9.826;2022-09-09T00:55:03;2.97;;;1.40;;
20140;SDS011;10231;47.702;9.826;2022-09-09T00:57:40;3.13;;;1.23;;
20140;SDS011;10231;47.702;9.826;2022-09-09T01:00:27;2.33;;;1.30;;
20140;SDS011;10231;47.702;9.826;2022-09-09T01:06:01;2.97;;;1.13;;
20140;SDS011;10231;47.702;9.826;2022-09-09T01:11:33;1.60;;;1.00;;
20140;SDS011;10231;47.702;9.826;2022-09-09T01:17:04;1.43;;;1.00;;
20140;SDS011;10231;47.702;9.826;2022-09-09T01:22:20;1.43;;;0.90;;
20140;SDS011;10231;47.702;9.826;2022-09-09T01:27:46;2.73;;;0.80;;
20140;SDS011;10231;47.702;9.826;2022-09-09T01:30:15;1.37;;;1.10;;
20140;SDS011;10231;47.702;9.826;2022-09-09T01:35:14;1.27;;;1.17;;
20140;SDS011;10231;47.702;9.826;2022-09-09T01:37:40;2.50;;;1.03;;
20140;SDS011;10231;47.702;9.826;2022-09-09T01:40:06;3.33;;;1.10;;
20140;SDS011;10231;47.702;9.826;2022-09-09T01:42:33;3.07;;;1.23;;
20140;SDS011;10231;47.702;9.826;2022-09-09T01:44:58;1.47;;;1.37;;
20140;SDS011;10231;47.702;9.826;2022-09-09T01:47:24;2.83;;;1.20;;
20140;SDS011;10231;47.702;9.826;2022-09-09T01:49:50;4.03;;;1.40;;
20140;SDS011;10231;47.702;9.826;2022-09-09T01:52:15;3.10;;;1.63;;
20140;SDS011;10231;47.702;9.826;2022-09-09T01:54:41;1.53;;;1.00;;
20140;SDS011;10231;47.702;9.826;2022-09-09T01:57:26;0.90;;;0.87;;
20140;SDS011;10231;47.702;9.826;2022-09-09T02:00:11;1.30;;;1.20;;
20140;SDS011;10231;47.702;9.826;2022-09-09T02:08:26;1.40;;;1.27;;
20140;SDS011;10231;47.702;9.826;2022-09-09T02:11:06;1.87;;;1.20;;
20140;SDS011;10231;47.702;9.826;2022-09-09T02:13:39;1.60;;;1.00;;
20140;SDS011;10231;47.702;9.826;2022-09-09T02:16:10;2.67;;;1.67;;
20140;SDS011;10231;47.702;9.826;2022-09-09T02:18:55;3.83;;;1.13;;
20140;SDS011;10231;47.702;9.826;2022-09-09T02:21:27;2.00;;;1.20;;
20140;SDS011;10231;47.702;9.826;2022-09-09T02:23:54;2.90;;;1.33;;
20140;SDS011;10231;47.702;9.826;2022-09-09T02:26:24;1.10;;;1.10;;
20140;SDS011;10231;47.702;9.826;2022-09-09T02:28:51;1.17;;;1.07;;
20140;SDS011;10231;47.702;9.826;2022-09-09T02:31:21;3.37;;;1.20;;
20140;SDS011;10231;47.702;9.826;2022-09-09T02:33:51;1.97;;;1.10;;
20140;SDS011;10231;47.702;9.826;2022-09-09T02:36:23;2.23;;;1.23;;
20140;SDS011;10231;47.702;9.826;2022-09-09T02:38:51;1.40;;;1.27;;
20140;SDS011;10231;47.702;9.826;2022-09-09T02:41:30;1.27;;;1.17;;
20140;SDS011;10231;47.702;9.826;2022-09-09T02:43:58;4.30;;;1.10;;
20140;SDS011;10231;47.702;9.826;2022-09-09T02:49:03;1.97;;;1.30;;
20140;SDS011;10231;47.702;9.826;2022-09-09T02:52:00;2.07;;;1.10;;
20140;SDS011;10231;47.702;9.826;2022-09-09T02:54:31;3.50;;;1.07;;
20140;SDS011;10231;47.702;9.826;2022-09-09T02:57:01;2.17;;;1.47;;
20140;SDS011;10231;47.702;9.826;2022-09-09T02:59:48;1.93;;;1.57;;
20140;SDS011;10231;47.702;9.826;2022-09-09T03:02:15;2.80;;;1.37;;
20140;SDS011;10231;47.702;9.826;2022-09-09T03:04:40;2.90;;;1.40;;
20140;SDS011;10231;47.702;9.826;2022-09-09T03:07:09;1.70;;;1.60;;
20140;SDS011;10231;47.702;9.826;2022-09-09T03:09:35;4.20;;;1.30;;
20140;SDS011;10231;47.702;9.826;2022-09-09T03:12:01;2.50;;;1.30;;
20140;SDS011;10231;47.702;9.826;2022-09-09T03:14:27;3.10;;;1.37;;
20140;SDS011;10231;47.702;9.826;2022-09-09T03:16:53;1.83;;;1.30;;
20140;SDS011;10231;47.702;9.826;2022-09-09T03:19:19;2.60;;;0.90;;
20140;SDS011;10231;47.702;9.826;2022-09-09T03:21:45;2.30;;;1.00;;
20140;SDS011;10231;47.702;9.826;2022-09-09T03:24:12;2.97;;;1.43;;
20140;SDS011;10231;47.702;9.826;2022-09-09T03:26:39;2.03;;;1.20;;
20140;SDS011;10231;47.702;9.826;2022-09-09T03:29:05;1.27;;;1.20;;
20140;SDS011;10231;47.702;9.826;2022-09-09T03:31:32;2.23;;;2.13;;
20140;SDS011;10231;47.702;9.826;2022-09-09T03:33:58;2.00;;;1.90;;
20140;SDS011;10231;47.702;9.826;2022-09-09T03:36:25;1.73;;;1.40;;
20140;SDS011;10231;47.702;9.826;2022-09-09T03:38:52;1.57;;;1.47;;
20140;SDS011;10231;47.702;9.826;2022-09-09T03:41:19;1.87;;;1.30;;
20140;SDS011;10231;47.702;9.826;2022-09-09T03:43:44;1.30;;;1.20;;
20140;SDS011;10231;47.702;9.826;2022-09-09T03:46:10;1.93;;;1.83;;
20140;SDS011;10231;47.702;9.826;2022-09-09T03:48:35;1.60;;;1.40;;
20140;SDS011;10231;47.702;9.826;2022-09-09T03:51:01;3.17;;;1.33;;
20140;SDS011;10231;47.702;9.826;2022-09-09T03:53:28;5.67;;;2.13;;
20140;SDS011;10231;47.702;9.826;2022-09-09T03:55:54;1.97;;;1.43;;
20140;SDS011;10231;47.702;9.826;2022-09-09T04:00:58;1.60;;;1.07;;
20140;SDS011;10231;47.702;9.826;2022-09-09T04:03:25;2.73;;;1.17;;
20140;SDS011;10231;47.702;9.826;2022-09-09T04:05:51;4.83;;;1.23;;
20140;SDS011;10231;47.702;9.826;2022-09-09T04:08:18;1.10;;;1.00;;
20140;SDS011;10231;47.702;9.826;2022-09-09T04:10:45;1.83;;;1.20;;
20140;SDS011;10231;47.702;9.826;2022-09-09T04:13:12;2.97;;;1.10;;
20140;SDS011;10231;47.702;9.826;2022-09-09T04:15:39;3.47;;;1.10;;
20140;SDS011;10231;47.702;9.826;2022-09-09T04:18:04;1.13;;;1.10;;
20140;SDS011;10231;47.702;9.826;2022-09-09T04:20:31;1.70;;;1.20;;
20140;SDS011;10231;47.702;9.826;2022-09-09T04:22:56;3.77;;;1.20;;
20140;SDS011;10231;47.702;9.826;2022-09-09T04:25:22;1.30;;;1.20;;
20140;SDS011;10231;47.702;9.826;2022-09-09T04:27:47;1.60;;;1.33;;
20140;SDS011;10231;47.702;9.826;2022-09-09T04:30:18;1.70;;;1.20;;
20140;SDS011;10231;47.702;9.826;2022-09-09T04:32:43;0.90;;;0.90;;
20140;SDS011;10231;47.702;9.826;2022-09-09T04:35:09;1.47;;;1.37;;
20140;SDS011;10231;47.702;9.826;2022-09-09T04:37:34;3.17;;;1.10;;
20140;SDS011;10231;47.702;9.826;2022-09-09T04:40:00;5.37;;;1.40;;
20140;SDS011;10231;47.702;9.826;2022-09-09T04:42:27;1.67;;;1.30;;
20140;SDS011;10231;47.702;9.826;2022-09-09T04:44:52;3.57;;;1.53;;
20140;SDS011;10231;47.702;9.826;2022-09-09T04:47:19;3.70;;;1.30;;
20140;SDS011;10231;47.702;9.826;2022-09-09T04:49:44;2.67;;;1.50;;
20140;SDS011;10231;47.702;9.826;2022-09-09T04:52:10;2.23;;;1.20;;
20140;SDS011;10231;47.702;9.826;2022-09-09T04:54:35;2.00;;;1.37;;
20140;SDS011;10231;47.702;9.826;2022-09-09T04:57:01;1.00;;;1.00;;
20140;SDS011;10231;47.702;9.826;2022-09-09T04:59:27;1.53;;;1.40;;
20140;SDS011;10231;47.702;9.826;2022-09-09T05:01:52;1.87;;;1.40;;
20140;SDS011;10231;47.702;9.826;2022-09-09T05:04:20;4.47;;;0.90;;
20140;SDS011;10231;47.702;9.826;2022-09-09T05:06:46;2.27;;;1.30;;
20140;SDS011;10231;47.702;9.826;2022-09-09T05:09:11;2.33;;;1.20;;
20140;SDS011;10231;47.702;9.826;2022-09-09T05:11:37;2.77;;;1.27;;
20140;SDS011;10231;47.702;9.826;2022-09-09T05:14:03;1.13;;;0.90;;
20140;SDS011;10231;47.702;9.826;2022-09-09T05:16:29;4.27;;;1.47;;
20140;SDS011;10231;47.702;9.826;2022-09-09T05:18:55;5.40;;;1.30;;
20140;SDS011;10231;47.702;9.826;2022-09-09T05:21:21;2.80;;;1.30;;
20140;SDS011;10231;47.702;9.826;2022-09-09T05:23:49;1.23;;;1.13;;
20140;SDS011;10231;47.702;9.826;2022-09-09T05:26:17;3.73;;;1.43;;
20140;SDS011;10231;47.702;9.826;2022-09-09T05:28:44;3.07;;;1.20;;
20140;SDS011;10231;47.702;9.826;2022-09-09T05:31:10;3.00;;;1.60;;
20140;SDS011;10231;47.702;9.826;2022-09-09T05:33:38;2.33;;;1.30;;
20140;SDS011;10231;47.702;9.826;2022-09-09T05:36:09;1.83;;;1.60;;
20140;SDS011;10231;47.702;9.826;2022-09-09T05:38:38;2.33;;;1.50;;
20140;SDS011;10231;47.702;9.826;2022-09-09T05:41:04;3.27;;;1.50;;
20140;SDS011;10231;47.702;9.826;2022-09-09T05:43:31;2.10;;;1.60;;
20140;SDS011;10231;47.702;9.826;2022-09-09T05:46:01;2.80;;;1.27;;
20140;SDS011;10231;47.702;9.826;2022-09-09T05:48:33;2.63;;;1.50;;
20140;SDS011;10231;47.702;9.826;2022-09-09T05:51:00;1.33;;;1.20;;
20140;SDS011;10231;47.702;9.826;2022-09-09T05:53:27;1.60;;;1.50;;
20140;SDS011;10231;47.702;9.826;2022-09-09T05:56:04;2.67;;;1.57;;
20140;SDS011;10231;47.702;9.826;2022-09-09T05:58:32;2.27;;;1.70;;
20140;SDS011;10231;47.702;9.826;2022-09-09T06:01:05;1.63;;;1.53;;
20140;SDS011;10231;47.702;9.826;2022-09-09T06:03:35;4.13;;;1.60;;
20140;SDS011;10231;47.702;9.826;2022-09-09T06:06:03;2.13;;;1.93;;
20140;SDS011;10231;47.702;9.826;2022-09-09T06:08:31;4.00;;;1.57;;
20140;SDS011;10231;47.702;9.826;2022-09-09T06:11:01;1.93;;;1.70;;
20140;SDS011;10231;47.702;9.826;2022-09-09T06:13:29;3.30;;;1.50;;
20140;SDS011;10231;47.702;9.826;2022-09-09T06:15:54;2.33;;;1.93;;
20140;SDS011;10231;47.702;9.826;2022-09-09T06:18:20;4.80;;;2.13;;
20140;SDS011;10231;47.702;9.826;2022-09-09T06:20:55;3.60;;;1.70;;
20140;SDS011;10231;47.702;9.826;2022-09-09T06:23:31;2.10;;;1.90;;
20140;SDS011;10231;47.702;9.826;2022-09-09T06:26:09;3.17;;;1.60;;
20140;SDS011;10231;47.702;9.826;2022-09-09T06:28:36;2.10;;;1.57;;
20140;SDS011;10231;47.702;9.826;2022-09-09T06:31:03;2.07;;;1.60;;
20140;SDS011;10231;47.702;9.826;2022-09-09T06:33:31;2.03;;;1.57;;
20140;SDS011;10231;47.702;9.826;2022-09-09T06:36:04;5.40;;;2.10;;
20140;SDS011;10231;47.702;9.826;2022-09-09T06:38:30;3.43;;;1.90;;
20140;SDS011;10231;47.702;9.826;2022-09-09T06:40:56;2.63;;;1.50;;
20140;SDS011;10231;47.702;9.826;2022-09-09T06:43:27;4.63;;;2.30;;
20140;SDS011;10231;47.702;9.826;2022-09-09T06:46:03;2.60;;;1.50;;
20140;SDS011;10231;47.702;9.826;2022-09-09T06:48:36;1.37;;;1.00;;
20140;SDS011;10231;47.702;9.826;2022-09-09T06:51:03;1.53;;;1.00;;
20140;SDS011;10231;47.702;9.826;2022-09-09T06:53:30;19.33;;;2.80;;
20140;SDS011;10231;47.702;9.826;2022-09-09T06:55:58;16.43;;;2.90;;
20140;SDS011;10231;47.702;9.826;2022-09-09T06:58:26;8.40;;;1.73;;
20140;SDS011;10231;47.702;9.826;2022-09-09T07:00:53;2.00;;;1.10;;
20140;SDS011;10231;47.702;9.826;2022-09-09T07:03:25;2.23;;;1.17;;
20140;SDS011;10231;47.702;9.826;2022-09-09T07:05:55;1.40;;;0.90;;
20140;SDS011;10231;47.702;9.826;2022-09-09T07:08:21;3.00;;;0.97;;
20140;SDS011;10231;47.702;9.826;2022-09-09T07:10:46;2.67;;;1.13;;
20140;SDS011;10231;47.702;9.826;2022-09-09T07:13:14;2.17;;;1.27;;
20140;SDS011;10231;47.702;9.826;2022-09-09T07:15:40;1.80;;;0.87;;
20140;SDS011;10231;47.702;9.826;2022-09-09T07:18:06;1.63;;;1.00;;
20140;SDS011;10231;47.702;9.826;2022-09-09T07:20:32;2.23;;;1.10;;
20140;SDS011;10231;47.702;9.826;2022-09-09T07:22:57;0.83;;;0.80;;
20140;SDS011;10231;47.702;9.826;2022-09-09T07:25:24;3.90;;;1.40;;
20140;SDS011;10231;47.702;9.826;2022-09-09T07:27:53;5.27;;;1.00;;
20140;SDS011;10231;47.702;9.826;2022-09-09T07:30:19;2.07;;;1.23;;
20140;SDS011;10231;47.702;9.826;2022-09-09T07:32:45;1.13;;;0.80;;
20140;SDS011;10231;47.702;9.826;2022-09-09T07:35:10;2.73;;;0.80;;
20140;SDS011;10231;47.702;9.826;2022-09-09T07:37:37;1.93;;;0.80;;
20140;SDS011;10231;47.702;9.826;2022-09-09T07:40:03;1.80;;;0.97;;
20140;SDS011;10231;47.702;9.826;2022-09-09T07:42:30;5.30;;;1.50;;
20140;SDS011;10231;47.702;9.826;2022-09-09T07:44:55;1.60;;;1.00;;
20140;SDS011;10231;47.702;9.826;2022-09-09T07:47:21;2.73;;;1.00;;
20140;SDS011;10231;47.702;9.826;2022-09-09T07:49:46;0.93;;;0.93;;
20140;SDS011;10231;47.702;9.826;2022-09-09T07:52:14;0.67;;;0.67;;
20140;SDS011;10231;47.702;9.826;2022-09-09T07:54:41;1.87;;;0.80;;
20140;SDS011;10231;47.702;9.826;2022-09-09T07:57:07;1.10;;;0.70;;
20140;SDS011;10231;47.702;9.826;2022-09-09T07:59:33;3.77;;;0.93;;
20140;SDS011;10231;47.702;9.826;2022-09-09T08:01:58;2.50;;;1.00;;
20140;SDS011;10231;47.702;9.826;2022-09-09T08:04:24;2.73;;;1.00;;
20140;SDS011;10231;47.702;9.826;2022-09-09T08:06:55;1.90;;;0.80;;
20140;SDS011;10231;47.702;9.826;2022-09-09T08:09:23;0.70;;;0.70;;
20140;SDS011;10231;47.702;9.826;2022-09-09T08:11:53;1.03;;;0.80;;
20140;SDS011;10231;47.702;9.826;2022-09-09T08:14:21;1.73;;;0.93;;
20140;SDS011;10231;47.702;9.826;2022-09-09T08:16:48;1.20;;;0.70;;
20140;SDS011;10231;47.702;9.826;2022-09-09T08:19:15;2.83;;;1.03;;
20140;SDS011;10231;47.702;9.826;2022-09-09T08:21:42;1.03;;;0.70;;
20140;SDS011;10231;47.702;9.826;2022-09-09T08:24:09;1.60;;;0.70;;
20140;SDS011;10231;47.702;9.826;2022-09-09T08:26:39;1.57;;;1.13;;
20140;SDS011;10231;47.702;9.826;2022-09-09T08:29:07;1.03;;;0.80;;
20140;SDS011;10231;47.702;9.826;2022-09-09T08:31:45;0.93;;;0.80;;
20140;SDS011;10231;47.702;9.826;2022-09-09T08:34:12;2.77;;;1.20;;
20140;SDS011;10231;47.702;9.826;2022-09-09T08:36:38;1.90;;;0.70;;
20140;SDS011;10231;47.702;9.826;2022-09-09T08:39:07;1.90;;;0.87;;
20140;SDS011;10231;47.702;9.826;2022-09-09T08:44:21;1.97;;;1.77;;
20140;SDS011;10231;47.702;9.826;2022-09-09T08:58:20;1.13;;;0.80;;
20140;SDS011;10231;47.702;9.826;2022-09-09T09:12:07;0.87;;;0.60;;
20140;SDS011;10231;47.702;9.826;2022-09-09T09:14:48;2.27;;;1.03;;
20140;SDS011;10231;47.702;9.826;2022-09-09T09:17:14;1.90;;;0.50;;
20140;SDS011;10231;47.702;9.826;2022-09-09T09:19:48;1.27;;;0.70;;
20140;SDS011;10231;47.702;9.826;2022-09-09T09:25:00;1.63;;;0.50;;
20140;SDS011;10231;47.702;9.826;2022-09-09T09:27:38;1.20;;;0.47;;
20140;SDS011;10231;47.702;9.826;2022-09-09T09:30:15;1.13;;;0.70;;
20140;SDS011;10231;47.702;9.826;2022-09-09T09:32:49;1.13;;;0.50;;
20140;SDS011;10231;47.702;9.826;2022-09-09T09:35:19;1.23;;;1.00;;
20140;SDS011;10231;47.702;9.826;2022-09-09T09:37:44;2.70;;;1.03;;
20140;SDS011;10231;47.702;9.826;2022-09-09T09:40:12;2.40;;;0.83;;
20140;SDS011;10231;47.702;9.826;2022-09-09T09:42:48;2.17;;;0.60;;
20140;SDS011;10231;47.702;9.826;2022-09-09T09:45:32;2.20;;;0.60;;
20140;SDS011;10231;47.702;9.826;2022-09-09T09:48:09;1.57;;;0.70;;
20140;SDS011;10231;47.702;9.826;2022-09-09T09:50:39;1.70;;;0.70;;
20140;SDS011;10231;47.702;9.826;2022-09-09T09:53:26;4.67;;;2.67;;
20140;SDS011;10231;47.702;9.826;2022-09-09T09:55:58;1.83;;;0.93;;
20140;SDS011;10231;47.702;9.826;2022-09-09T10:04:15;1.50;;;0.53;;
20140;SDS011;10231;47.702;9.826;2022-09-09T10:06:44;1.73;;;0.50;;
20140;SDS011;10231;47.702;9.826;2022-09-09T10:09:25;1.17;;;0.60;;
20140;SDS011;10231;47.702;9.826;2022-09-09T10:11:55;0.87;;;0.40;;
20140;SDS011;10231;47.702;9.826;2022-09-09T10:14:30;2.27;;;0.80;;
20140;SDS011;10231;47.702;9.826;2022-09-09T10:17:12;0.97;;;0.60;;
20140;SDS011;10231;47.702;9.826;2022-09-09T10:19:54;1.80;;;0.40;;
20140;SDS011;10231;47.702;9.826;2022-09-09T10:22:47;3.17;;;0.50;;
20140;SDS011;10231;47.702;9.826;2022-09-09T10:25:35;0.90;;;0.60;;
20140;SDS011;10231;47.702;9.826;2022-09-09T10:28:16;1.87;;;0.60;;
20140;SDS011;10231;47.702;9.826;2022-09-09T10:31:06;2.33;;;0.40;;
20140;SDS011;10231;47.702;9.826;2022-09-09T10:34:12;0.83;;;0.40;;
20140;SDS011;10231;47.702;9.826;2022-09-09T10:36:52;1.07;;;0.50;;
20140;SDS011;10231;47.702;9.826;2022-09-09T10:39:25;0.63;;;0.63;;
20140;SDS011;10231;47.702;9.826;2022-09-09T10:42:06;1.33;;;0.50;;
20140;SDS011;10231;47.702;9.826;2022-09-09T10:52:26;1.00;;;0.50;;
20140;SDS011;10231;47.702;9.826;2022-09-09T10:57:41;2.17;;;0.50;;
20140;SDS011;10231;47.702;9.826;2022-09-09T11:00:16;1.10;;;0.60;;
20140;SDS011;10231;47.702;9.826;2022-09-09T11:02:45;2.00;;;0.50;;
20140;SDS011;10231;47.702;9.826;2022-09-09T11:07:49;0.73;;;0.47;;
20140;SDS011;10231;47.702;9.826;2022-09-09T11:12:53;0.50;;;0.40;;
20140;SDS011;10231;47.702;9.826;2022-09-09T11:15:31;2.10;;;0.60;;
20140;SDS011;10231;47.702;9.826;2022-09-09T11:18:04;2.93;;;0.70;;
20140;SDS011;10231;47.702;9.826;2022-09-09T11:20:36;3.43;;;0.97;;
20140;SDS011;10231;47.702;9.826;2022-09-09T11:23:09;3.70;;;0.90;;
20140;SDS011;10231;47.702;9.826;2022-09-09T11:25:40;1.70;;;0.60;;
20140;SDS011;10231;47.702;9.826;2022-09-09T11:28:26;2.40;;;0.50;;
20140;SDS011;10231;47.702;9.826;2022-09-09T11:42:21;2.80;;;0.50;;
20140;SDS011;10231;47.702;9.826;2022-09-09T11:44:48;3.00;;;0.60;;
20140;SDS011;10231;47.702;9.826;2022-09-09T11:47:23;1.20;;;0.50;;
20140;SDS011;10231;47.702;9.826;2022-09-09T11:50:37;2.73;;;0.70;;
20140;SDS011;10231;47.702;9.826;2022-09-09T11:52:45;1.87;;;0.50;;
20140;SDS011;10231;47.702;9.826;2022-09-09T11:55:24;0.60;;;0.60;;
20140;SDS011;10231;47.702;9.826;2022-09-09T11:58:01;3.90;;;1.00;;
20140;SDS011;10231;47.702;9.826;2022-09-09T12:02:57;2.63;;;0.80;;
20140;SDS011;10231;47.702;9.826;2022-09-09T12:05:23;2.07;;;1.20;;
20140;SDS011;10231;47.702;9.826;2022-09-09T12:08:03;1.80;;;0.63;;
20140;SDS011;10231;47.702;9.826;2022-09-09T12:10:30;2.27;;;0.67;;
20140;SDS011;10231;47.702;9.826;2022-09-09T12:13:34;1.70;;;0.63;;
20140;SDS011;10231;47.702;9.826;2022-09-09T12:15:53;0.93;;;0.80;;
20140;SDS011;10231;47.702;9.826;2022-09-09T12:18:24;2.00;;;0.50;;
20140;SDS011;10231;47.702;9.826;2022-09-09T12:23:45;1.13;;;0.70;;
20140;SDS011;10231;47.702;9.826;2022-09-09T12:29:05;1.00;;;0.40;;
20140;SDS011;10231;47.702;9.826;2022-09-09T12:32:12;2.00;;;0.60;;
20140;SDS011;10231;47.702;9.826;2022-09-09T12:34:52;0.70;;;0.40;;
20140;SDS011;10231;47.702;9.826;2022-09-09T12:37:31;1.10;;;0.50;;
20140;SDS011;10231;47.702;9.826;2022-09-09T12:42:30;1.60;;;0.50;;
20140;SDS011;10231;47.702;9.826;2022-09-09T12:45:00;1.60;;;0.50;;
20140;SDS011;10231;47.702;9.826;2022-09-09T12:47:38;2.80;;;0.70;;
20140;SDS011;10231;47.702;9.826;2022-09-09T12:50:22;0.70;;;0.40;;
20140;SDS011;10231;47.702;9.826;2022-09-09T12:52:51;2.47;;;0.80;;
20140;SDS011;10231;47.702;9.826;2022-09-09T12:55:23;0.50;;;0.50;;
20140;SDS011;10231;47.702;9.826;2022-09-09T12:57:52;0.67;;;0.40;;
20140;SDS011;10231;47.702;9.826;2022-09-09T13:00:23;3.60;;;0.60;;
20140;SDS011;10231;47.702;9.826;2022-09-09T13:02:50;1.77;;;0.50;;
20140;SDS011;10231;47.702;9.826;2022-09-09T13:07:49;1.33;;;0.67;;
20140;SDS011;10231;47.702;9.826;2022-09-09T13:10:21;1.03;;;0.50;;
20140;SDS011;10231;47.702;9.826;2022-09-09T13:12:51;0.97;;;0.50;;
20140;SDS011;10231;47.702;9.826;2022-09-09T13:15:21;1.30;;;0.50;;
20140;SDS011;10231;47.702;9.826;2022-09-09T13:17:50;1.90;;;0.77;;
20140;SDS011;10231;47.702;9.826;2022-09-09T13:20:18;0.80;;;0.53;;
20140;SDS011;10231;47.702;9.826;2022-09-09T13:22:45;1.23;;;0.60;;
20140;SDS011;10231;47.702;9.826;2022-09-09T13:28:03;1.87;;;0.40;;
20140;SDS011;10231;47.702;9.826;2022-09-09T13:30:36;0.40;;;0.40;;
20140;SDS011;10231;47.702;9.826;2022-09-09T13:33:17;1.53;;;0.40;;
20140;SDS011;10231;47.702;9.826;2022-09-09T13:35:48;1.33;;;0.50;;
20140;SDS011;10231;47.702;9.826;2022-09-09T13:38:17;1.13;;;0.77;;
20140;SDS011;10231;47.702;9.826;2022-09-09T13:40:56;0.60;;;0.33;;
20140;SDS011;10231;47.702;9.826;2022-09-09T13:43:24;0.73;;;0.47;;
20140;SDS011;10231;47.702;9.826;2022-09-09T13:45:58;0.80;;;0.50;;
20140;SDS011;10231;47.702;9.826;2022-09-09T13:48:26;2.13;;;0.40;;
20140;SDS011;10231;47.702;9.826;2022-09-09T13:50:56;1.03;;;0.50;;
20140;SDS011;10231;47.702;9.826;2022-09-09T13:53:23;2.30;;;0.50;;
20140;SDS011;10231;47.702;9.826;2022-09-09T13:55:50;2.67;;;1.50;;
20140;SDS011;10231;47.702;9.826;2022-09-09T13:58:17;1.07;;;0.50;;
20140;SDS011;10231;47.702;9.826;2022-09-09T14:00:46;1.57;;;0.40;;
20140;SDS011;10231;47.702;9.826;2022-09-09T14:03:12;17.53;;;1.23;;
20140;SDS011;10231;47.702;9.826;2022-09-09T14:05:38;0.97;;;0.67;;
20140;SDS011;10231;47.702;9.826;2022-09-09T14:08:04;2.40;;;0.70;;
20140;SDS011;10231;47.702;9.826;2022-09-09T14:10:32;1.10;;;0.40;;
20140;SDS011;10231;47.702;9.826;2022-09-09T14:13:00;1.60;;;0.77;;
20140;SDS011;10231;47.702;9.826;2022-09-09T14:15:26;1.80;;;0.50;;
20140;SDS011;10231;47.702;9.826;2022-09-09T14:17:52;1.27;;;0.60;;
20140;SDS011;10231;47.702;9.826;2022-09-09T14:20:17;0.87;;;0.50;;
20140;SDS011;10231;47.702;9.826;2022-09-09T14:22:44;6.63;;;0.87;;
20140;SDS011;10231;47.702;9.826;2022-09-09T14:25:10;0.63;;;0.40;;
20140;SDS011;10231;47.702;9.826;2022-09-09T14:27:38;1.03;;;0.50;;
20140;SDS011;10231;47.702;9.826;2022-09-09T14:30:04;1.63;;;0.70;;
20140;SDS011;10231;47.702;9.826;2022-09-09T14:32:31;0.67;;;0.43;;
20140;SDS011;10231;47.702;9.826;2022-09-09T14:34:56;1.43;;;0.40;;
20140;SDS011;10231;47.702;9.826;2022-09-09T14:37:22;2.13;;;0.77;;
20140;SDS011;10231;47.702;9.826;2022-09-09T14:39:47;1.13;;;0.50;;
20140;SDS011;10231;47.702;9.826;2022-09-09T14:42:15;1.23;;;0.40;;
20140;SDS011;10231;47.702;9.826;2022-09-09T14:44:41;0.80;;;0.60;;
20140;SDS011;10231;47.702;9.826;2022-09-09T14:47:06;1.20;;;0.50;;
20140;SDS011;10231;47.702;9.826;2022-09-09T14:49:33;0.87;;;0.50;;
20140;SDS011;10231;47.702;9.826;2022-09-09T14:52:02;0.50;;;0.40;;
20140;SDS011;10231;47.702;9.826;2022-09-09T14:54:28;1.13;;;0.40;;
20140;SDS011;10231;47.702;9.826;2022-09-09T14:56:54;1.57;;;0.40;;
20140;SDS011;10231;47.702;9.826;2022-09-09T14:59:22;0.63;;;0.30;;
20140;SDS011;10231;47.702;9.826;2022-09-09T15:01:47;2.10;;;0.50;;
20140;SDS011;10231;47.702;9.826;2022-09-09T15:04:13;0.80;;;0.40;;
20140;SDS011;10231;47.702;9.826;2022-09-09T15:06:39;0.60;;;0.43;;
20140;SDS011;10231;47.702;9.826;2022-09-09T15:09:07;1.63;;;0.77;;
20140;SDS011;10231;47.702;9.826;2022-09-09T15:11:34;1.77;;;0.70;;
20140;SDS011;10231;47.702;9.826;2022-09-09T15:14:04;0.93;;;0.50;;
20140;SDS011;10231;47.702;9.826;2022-09-09T15:16:31;0.70;;;0.37;;
20140;SDS011;10231;47.702;9.826;2022-09-09T15:18:57;0.97;;;0.40;;
20140;SDS011;10231;47.702;9.826;2022-09-09T15:21:28;2.63;;;0.60;;
20140;SDS011;10231;47.702;9.826;2022-09-09T15:23:55;1.07;;;0.60;;
20140;SDS011;10231;47.702;9.826;2022-09-09T15:26:21;2.10;;;0.70;;
20140;SDS011;10231;47.702;9.826;2022-09-09T15:28:47;1.57;;;0.50;;
20140;SDS011;10231;47.702;9.826;2022-09-09T15:31:20;0.60;;;0.60;;
20140;SDS011;10231;47.702;9.826;2022-09-09T15:33:55;1.30;;;0.43;;
20140;SDS011;10231;47.702;9.826;2022-09-09T15:36:32;2.40;;;0.63;;
20140;SDS011;10231;47.702;9.826;2022-09-09T15:39:02;2.10;;;0.60;;
20140;SDS011;10231;47.702;9.826;2022-09-09T15:41:29;1.53;;;0.43;;
20140;SDS011;10231;47.702;9.826;2022-09-09T15:43:57;1.47;;;0.47;;
20140;SDS011;10231;47.702;9.826;2022-09-09T15:46:24;1.57;;;0.60;;
20140;SDS011;10231;47.702;9.826;2022-09-09T15:49:05;1.43;;;0.60;;
20140;SDS011;10231;47.702;9.826;2022-09-09T15:51:33;0.90;;;0.40;;
20140;SDS011;10231;47.702;9.826;2022-09-09T15:53:59;1.13;;;0.40;;
20140;SDS011;10231;47.702;9.826;2022-09-09T15:56:26;1.37;;;0.43;;
20140;SDS011;10231;47.702;9.826;2022-09-09T15:58:53;0.83;;;0.67;;
20140;SDS011;10231;47.702;9.826;2022-09-09T16:01:20;1.40;;;0.43;;
20140;SDS011;10231;47.702;9.826;2022-09-09T16:03:46;2.93;;;0.60;;
20140;SDS011;10231;47.702;9.826;2022-09-09T16:06:13;0.93;;;0.63;;
20140;SDS011;10231;47.702;9.826;2022-09-09T16:08:40;0.63;;;0.50;;
20140;SDS011;10231;47.702;9.826;2022-09-09T16:11:14;5.23;;;0.80;;
20140;SDS011;10231;47.702;9.826;2022-09-09T16:13:42;0.60;;;0.60;;
20140;SDS011;10231;47.702;9.826;2022-09-09T16:16:11;1.67;;;0.63;;
20140;SDS011;10231;47.702;9.826;2022-09-09T16:18:39;1.77;;;0.60;;
20140;SDS011;10231;47.702;9.826;2022-09-09T16:21:12;2.00;;;0.50;;
20140;SDS011;10231;47.702;9.826;2022-09-09T16:23:45;1.10;;;0.67;;
20140;SDS011;10231;47.702;9.826;2022-09-09T16:26:12;1.33;;;0.70;;
20140;SDS011;10231;47.702;9.826;2022-09-09T16:28:39;1.23;;;1.07;;
20140;SDS011;10231;47.702;9.826;2022-09-09T16:31:05;3.40;;;1.60;;
20140;SDS011;10231;47.702;9.826;2022-09-09T16:33:32;1.50;;;1.00;;
20140;SDS011;10231;47.702;9.826;2022-09-09T16:35:57;2.60;;;1.00;;
20140;SDS011;10231;47.702;9.826;2022-09-09T16:38:23;1.53;;;1.30;;
20140;SDS011;10231;47.702;9.826;2022-09-09T16:40:49;6.00;;;1.50;;
20140;SDS011;10231;47.702;9.826;2022-09-09T16:43:15;4.20;;;1.10;;
20140;SDS011;10231;47.702;9.826;2022-09-09T16:45:41;3.10;;;0.63;;
20140;SDS011;10231;47.702;9.826;2022-09-09T16:48:08;1.13;;;0.77;;
20140;SDS011;10231;47.702;9.826;2022-09-09T16:50:33;1.33;;;0.87;;
20140;SDS011;10231;47.702;9.826;2022-09-09T16:52:59;1.40;;;0.83;;
20140;SDS011;10231;47.702;9.826;2022-09-09T16:55:27;1.03;;;0.50;;
20140;SDS011;10231;47.702;9.826;2022-09-09T16:57:53;1.20;;;1.00;;
20140;SDS011;10231;47.702;9.826;2022-09-09T17:00:18;1.80;;;0.53;;
20140;SDS011;10231;47.702;9.826;2022-09-09T17:02:44;0.63;;;0.50;;
20140;SDS011;10231;47.702;9.826;2022-09-09T17:05:10;1.87;;;0.67;;
20140;SDS011;10231;47.702;9.826;2022-09-09T17:07:36;1.47;;;0.80;;
20140;SDS011;10231;47.702;9.826;2022-09-09T17:10:03;0.57;;;0.57;;